createdAt,value
2023-02-07T00:00:12.071Z,102453.38
2023-02-07T00:01:15.065Z,102446.03
2023-02-07T00:02:11.108Z,102450.36
2023-02-07T00:03:11.105Z,102454.65
2023-02-07T00:04:11.066Z,102452.38
2023-02-07T00:05:11.062Z,102446.45
2023-02-07T00:06:15.068Z,102449.94
2023-02-07T00:07:11.071Z,102448.00
2023-02-07T00:08:11.062Z,102444.55
2023-02-07T00:09:11.065Z,102442.00
2023-02-07T00:10:11.066Z,102438.83
2023-02-07T00:11:14.064Z,102433.50
2023-02-07T00:12:11.065Z,102436.07
2023-02-07T00:13:11.079Z,102435.88
2023-02-07T00:14:11.061Z,102437.34
2023-02-07T00:15:11.072Z,102435.60
2023-02-07T00:16:11.108Z,102435.33
2023-02-07T00:17:11.065Z,102435.80
2023-02-07T00:18:11.067Z,102432.39
2023-02-07T00:19:11.076Z,102436.89
2023-02-07T00:20:11.063Z,102436.55
2023-02-07T00:21:14.067Z,102440.43
2023-02-07T00:22:11.078Z,102440.59
2023-02-07T00:23:11.062Z,102440.91
2023-02-07T00:24:11.069Z,102447.18
2023-02-07T00:25:11.072Z,102443.37
2023-02-07T00:26:11.077Z,102443.46
2023-02-07T00:27:11.067Z,102437.68
2023-02-07T00:28:11.143Z,102436.38
2023-02-07T00:29:11.067Z,102430.98
2023-02-07T00:30:11.067Z,102429.97
2023-02-07T00:31:11.215Z,102431.08
2023-02-07T00:32:11.068Z,102427.99
2023-02-07T00:33:11.068Z,102430.79
2023-02-07T00:34:11.073Z,102432.25
2023-02-07T00:35:11.065Z,102433.31
2023-02-07T00:36:14.073Z,102438.52
2023-02-07T00:37:11.068Z,102440.04
2023-02-07T00:38:11.064Z,102437.62
2023-02-07T00:39:13.067Z,102436.48
2023-02-07T00:40:11.073Z,102436.12
2023-02-07T00:41:11.068Z,102434.18
2023-02-07T00:42:11.066Z,102434.99
2023-02-07T00:43:16.465Z,102432.12
2023-02-07T00:44:13.627Z,102429.00
2023-02-07T00:45:11.068Z,102426.46
2023-02-07T00:46:11.131Z,102422.66
2023-02-07T00:47:11.065Z,102423.84
2023-02-07T00:48:11.069Z,102420.73
2023-02-07T00:49:11.075Z,102420.39
2023-02-07T00:50:11.065Z,102422.31
2023-02-07T00:51:11.069Z,102425.72
2023-02-07T00:52:11.082Z,102427.41
2023-02-07T00:53:11.065Z,102433.13
2023-02-07T00:54:11.069Z,102433.91
2023-02-07T00:55:11.074Z,102434.72
2023-02-07T00:56:11.065Z,102436.10
2023-02-07T00:57:11.074Z,102435.69
2023-02-07T00:58:11.074Z,102433.42
2023-02-07T00:59:11.064Z,102428.30
2023-02-07T01:00:11.062Z,102424.81
2023-02-07T01:01:11.110Z,102427.37
2023-02-07T01:02:11.059Z,102430.50
2023-02-07T01:03:11.060Z,102429.33
2023-02-07T01:04:11.064Z,102430.09
2023-02-07T01:05:11.066Z,102432.19
2023-02-07T01:06:11.064Z,102431.68
2023-02-07T01:07:11.061Z,102431.56
2023-02-07T01:08:11.060Z,102426.64
2023-02-07T01:09:11.081Z,102428.20
2023-02-07T01:10:11.070Z,102430.28
2023-02-07T01:11:11.066Z,102428.02
2023-02-07T01:12:11.073Z,102428.93
2023-02-07T01:13:11.080Z,102430.42
2023-02-07T01:14:11.091Z,102435.22
2023-02-07T01:15:11.069Z,102432.40
2023-02-07T01:16:15.658Z,102431.11
2023-02-07T01:17:11.064Z,102430.91
2023-02-07T01:18:11.072Z,102433.49
2023-02-07T01:19:11.065Z,102432.25
2023-02-07T01:20:11.150Z,102430.92
2023-02-07T01:21:18.073Z,102434.28
2023-02-07T01:22:11.064Z,102435.79
2023-02-07T01:23:11.067Z,102435.89
2023-02-07T01:24:11.075Z,102441.87
2023-02-07T01:25:11.069Z,102436.82
2023-02-07T01:26:11.062Z,102437.56
2023-02-07T01:27:11.081Z,102438.48
2023-02-07T01:28:11.108Z,102434.80
2023-02-07T01:29:13.069Z,102438.39
2023-02-07T01:30:11.079Z,102434.00
2023-02-07T01:31:13.207Z,102438.11
2023-02-07T01:32:11.068Z,102438.89
2023-02-07T01:33:11.075Z,102437.23
2023-02-07T01:34:12.076Z,102440.40
2023-02-07T01:35:11.070Z,102439.43
2023-02-07T01:36:12.072Z,102442.14
2023-02-07T01:37:11.076Z,102443.71
2023-02-07T01:38:11.064Z,102437.37
2023-02-07T01:39:11.070Z,102437.95
2023-02-07T01:40:11.065Z,102435.27
2023-02-07T01:41:11.064Z,102435.27
2023-02-07T01:42:14.068Z,102434.43
2023-02-07T01:43:17.063Z,102432.70
2023-02-07T01:44:19.061Z,102431.53
2023-02-07T01:45:22.072Z,102434.02
2023-02-07T01:46:11.106Z,102433.82
2023-02-07T01:47:22.060Z,102432.30
2023-02-07T01:48:19.058Z,102436.16
2023-02-07T01:49:13.064Z,102435.62
2023-02-07T01:50:11.069Z,102434.92
2023-02-07T01:51:11.062Z,102433.89
2023-02-07T01:52:17.059Z,102433.67
2023-02-07T01:53:12.069Z,102433.61
2023-02-07T01:54:11.061Z,102433.99
2023-02-07T01:55:14.068Z,102437.18
2023-02-07T01:56:20.072Z,102437.41
2023-02-07T01:57:16.626Z,102438.11
2023-02-07T01:58:11.056Z,102437.21
2023-02-07T01:59:11.074Z,102439.50
2023-02-07T02:00:13.092Z,102436.98
2023-02-07T02:01:15.083Z,102438.08
2023-02-07T02:02:12.128Z,102434.78
2023-02-07T02:03:11.063Z,102433.65
2023-02-07T02:04:11.058Z,102434.23
2023-02-07T02:05:11.061Z,102431.68
2023-02-07T02:06:11.062Z,102429.25
2023-02-07T02:07:13.059Z,102429.09
2023-02-07T02:08:11.076Z,102430.00
2023-02-07T02:09:12.060Z,102429.22
2023-02-07T02:10:15.082Z,102425.25
2023-02-07T02:11:22.064Z,102427.71
2023-02-07T02:12:19.084Z,102426.80
2023-02-07T02:13:22.070Z,102425.77
2023-02-07T02:14:19.070Z,102427.06
2023-02-07T02:15:19.100Z,102420.50
2023-02-07T02:16:19.118Z,102420.85
2023-02-07T02:17:21.063Z,102421.27
2023-02-07T02:18:19.062Z,102420.50
2023-02-07T02:19:19.060Z,102421.70
2023-02-07T02:20:19.060Z,102422.54
2023-02-07T02:21:19.074Z,102421.50
2023-02-07T02:22:19.065Z,102421.61
2023-02-07T02:23:20.061Z,102422.25
2023-02-07T02:24:19.069Z,102419.83
2023-02-07T02:25:22.074Z,102418.18
2023-02-07T02:26:22.070Z,102416.08
2023-02-07T02:27:22.064Z,102417.57
2023-02-07T02:28:22.142Z,102414.04
2023-02-07T02:29:22.064Z,102409.88
2023-02-07T02:30:19.085Z,102408.56
2023-02-07T02:31:19.086Z,102403.45
2023-02-07T02:32:19.070Z,102406.97
2023-02-07T02:33:19.069Z,102400.22
2023-02-07T02:34:19.062Z,102400.97
2023-02-07T02:35:19.064Z,102400.78
2023-02-07T02:36:19.085Z,102401.88
2023-02-07T02:37:19.076Z,102403.66
2023-02-07T02:38:19.065Z,102404.47
2023-02-07T02:39:18.068Z,102406.76
2023-02-07T02:40:19.061Z,102408.74
2023-02-07T02:41:17.071Z,102411.48
2023-02-07T02:42:19.064Z,102407.35
2023-02-07T02:43:19.063Z,102406.77
2023-02-07T02:44:18.063Z,102405.18
2023-02-07T02:45:20.072Z,102403.47
2023-02-07T02:46:17.090Z,102404.76
2023-02-07T02:47:11.072Z,102401.23
2023-02-07T02:48:13.073Z,102402.27
2023-02-07T02:49:12.072Z,102403.98
2023-02-07T02:50:14.064Z,102397.36
2023-02-07T02:51:11.070Z,102400.46
2023-02-07T02:52:11.073Z,102397.65
2023-02-07T02:53:11.066Z,102399.02
2023-02-07T02:54:19.069Z,102397.53
2023-02-07T02:55:11.069Z,102396.63
2023-02-07T02:56:19.081Z,102395.89
2023-02-07T02:57:25.066Z,102398.67
2023-02-07T02:58:25.061Z,102397.61
2023-02-07T02:59:22.069Z,102399.61
2023-02-07T03:00:19.067Z,102397.93
2023-02-07T03:01:19.132Z,102397.66
2023-02-07T03:02:19.088Z,102396.76
2023-02-07T03:03:19.086Z,102394.92
2023-02-07T03:04:19.067Z,102393.30
2023-02-07T03:05:19.101Z,102386.23
2023-02-07T03:06:19.068Z,102384.84
2023-02-07T03:07:19.066Z,102385.94
2023-02-07T03:08:19.070Z,102386.55
2023-02-07T03:09:22.072Z,102387.09
2023-02-07T03:10:19.087Z,102389.19
2023-02-07T03:11:17.071Z,102390.87
2023-02-07T03:12:19.069Z,102387.57
2023-02-07T03:13:19.087Z,102390.42
2023-02-07T03:14:18.076Z,102392.36
2023-02-07T03:15:22.077Z,102387.32
2023-02-07T03:16:24.113Z,102390.65
2023-02-07T03:17:19.067Z,102390.71
2023-02-07T03:18:18.069Z,102391.10
2023-02-07T03:19:19.078Z,102388.29
2023-02-07T03:20:17.068Z,102386.00
2023-02-07T03:21:18.066Z,102387.52
2023-02-07T03:22:17.069Z,102384.35
2023-02-07T03:23:11.074Z,102385.74
2023-02-07T03:24:17.064Z,102385.65
2023-02-07T03:25:11.062Z,102383.10
2023-02-07T03:26:11.080Z,102379.93
2023-02-07T03:27:13.063Z,102380.84
2023-02-07T03:28:11.088Z,102382.33
2023-02-07T03:29:11.067Z,102379.42
2023-02-07T03:30:13.066Z,102375.00
2023-02-07T03:31:11.073Z,102377.43
2023-02-07T03:32:11.073Z,102379.73
2023-02-07T03:33:14.082Z,102380.56
2023-02-07T03:34:14.064Z,102381.02
2023-02-07T03:35:19.065Z,102379.66
2023-02-07T03:36:23.093Z,102387.54
2023-02-07T03:37:20.067Z,102385.96
2023-02-07T03:38:11.068Z,102386.70
2023-02-07T03:39:11.062Z,102386.93
2023-02-07T03:40:11.084Z,102387.35
2023-02-07T03:41:21.064Z,102386.93
2023-02-07T03:42:19.063Z,102390.27
2023-02-07T03:43:18.063Z,102386.33
2023-02-07T03:44:12.072Z,102391.53
2023-02-07T03:45:13.073Z,102390.04
2023-02-07T03:46:11.105Z,102390.91
2023-02-07T03:47:11.062Z,102386.25
2023-02-07T03:48:11.070Z,102388.13
2023-02-07T03:49:11.064Z,102386.45
2023-02-07T03:50:11.067Z,102385.73
2023-02-07T03:51:11.069Z,102379.44
2023-02-07T03:52:11.069Z,102379.14
2023-02-07T03:53:11.064Z,102378.05
2023-02-07T03:54:11.070Z,102380.60
2023-02-07T03:55:11.062Z,102377.82
2023-02-07T03:56:11.068Z,102379.76
2023-02-07T03:57:11.066Z,102377.89
2023-02-07T03:58:12.063Z,102375.40
2023-02-07T03:59:11.070Z,102374.98
2023-02-07T04:00:11.064Z,102374.66
2023-02-07T04:02:45.492Z,102368.04
2023-02-07T04:03:13.036Z,102372.01
2023-02-07T04:04:11.067Z,102372.98
2023-02-07T04:05:11.063Z,102375.95
2023-02-07T04:06:11.074Z,102381.31
2023-02-07T04:07:11.065Z,102385.48
2023-02-07T04:08:11.069Z,102382.67
2023-02-07T04:09:11.966Z,102388.88
2023-02-07T04:10:11.086Z,102388.14
2023-02-07T04:11:11.063Z,102389.27
2023-02-07T04:12:11.065Z,102387.40
2023-02-07T04:13:11.063Z,102388.34
2023-02-07T04:14:11.073Z,102389.69
2023-02-07T04:15:11.064Z,102387.24
2023-02-07T04:16:11.102Z,102386.43
2023-02-07T04:17:11.067Z,102380.20
2023-02-07T04:18:11.069Z,102379.78
2023-02-07T04:19:11.071Z,102375.80
2023-02-07T04:20:11.068Z,102370.25
2023-02-07T04:21:11.065Z,102372.58
2023-02-07T04:22:11.156Z,102372.09
2023-02-07T04:23:11.066Z,102371.71
2023-02-07T04:24:11.067Z,102373.00
2023-02-07T04:25:11.066Z,102372.35
2023-02-07T04:26:11.068Z,102373.71
2023-02-07T04:27:11.065Z,102381.91
2023-02-07T04:28:11.093Z,102386.72
2023-02-07T04:29:11.063Z,102385.72
2023-02-07T04:30:11.073Z,102381.78
2023-02-07T04:31:11.059Z,102381.65
2023-02-07T04:32:11.063Z,102382.39
2023-02-07T04:33:11.063Z,102381.55
2023-02-07T04:34:11.062Z,102380.36
2023-02-07T04:35:11.068Z,102378.36
2023-02-07T04:36:11.068Z,102375.16
2023-02-07T04:37:11.061Z,102380.10
2023-02-07T04:38:11.077Z,102378.13
2023-02-07T04:39:11.064Z,102383.46
2023-02-07T04:40:11.066Z,102385.65
2023-02-07T04:41:11.064Z,102390.53
2023-02-07T04:42:11.062Z,102385.43
2023-02-07T04:43:11.057Z,102389.50
2023-02-07T04:44:11.069Z,102383.07
2023-02-07T04:45:11.061Z,102380.72
2023-02-07T04:46:11.141Z,102380.43
2023-02-07T04:47:11.070Z,102381.68
2023-02-07T04:48:11.069Z,102378.88
2023-02-07T04:49:11.071Z,102375.94
2023-02-07T04:50:11.065Z,102374.94
2023-02-07T04:51:11.061Z,102378.55
2023-02-07T04:52:11.060Z,102381.65
2023-02-07T04:53:11.067Z,102385.50
2023-02-07T04:54:11.061Z,102385.59
2023-02-07T04:55:11.062Z,102383.59
2023-02-07T04:56:11.061Z,102382.55
2023-02-07T04:57:11.060Z,102381.62
2023-02-07T04:58:11.061Z,102379.72
2023-02-07T04:59:11.063Z,102378.33
2023-02-07T05:00:11.059Z,102377.59
2023-02-07T05:01:11.101Z,102376.07
2023-02-07T05:02:11.061Z,102376.30
2023-02-07T05:03:11.066Z,102374.94
2023-02-07T05:04:11.132Z,102374.48
2023-02-07T05:05:11.070Z,102370.58
2023-02-07T05:06:11.059Z,102369.58
2023-02-07T05:07:11.071Z,102366.87
2023-02-07T05:08:11.073Z,102366.45
2023-02-07T05:09:11.070Z,102366.00
2023-02-07T05:10:11.073Z,102368.19
2023-02-07T05:11:11.074Z,102369.22
2023-02-07T05:12:11.070Z,102370.42
2023-02-07T05:13:11.084Z,102371.35
2023-02-07T05:14:11.064Z,102367.22
2023-02-07T05:15:11.069Z,102365.54
2023-02-07T05:16:11.074Z,102364.67
2023-02-07T05:17:11.072Z,102366.51
2023-02-07T05:18:11.070Z,102367.67
2023-02-07T05:19:11.082Z,102364.22
2023-02-07T05:20:11.068Z,102364.51
2023-02-07T05:21:11.065Z,102366.93
2023-02-07T05:22:11.083Z,102368.09
2023-02-07T05:23:11.070Z,102370.02
2023-02-07T05:24:11.081Z,102369.47
2023-02-07T05:25:11.090Z,102370.50
2023-02-07T05:26:11.069Z,102368.51
2023-02-07T05:27:11.069Z,102370.02
2023-02-07T05:28:11.229Z,102374.96
2023-02-07T05:29:11.067Z,102373.32
2023-02-07T05:30:11.069Z,102379.06
2023-02-07T05:31:11.161Z,102375.99
2023-02-07T05:32:17.065Z,102374.73
2023-02-07T05:33:11.066Z,102375.73
2023-02-07T05:34:11.076Z,102374.93
2023-02-07T05:35:11.070Z,102370.77
2023-02-07T05:36:11.065Z,102372.80
2023-02-07T05:37:11.078Z,102370.54
2023-02-07T05:38:11.091Z,102363.15
2023-02-07T05:39:11.071Z,102361.38
2023-02-07T05:40:11.073Z,102362.57
2023-02-07T05:41:11.067Z,102362.02
2023-02-07T05:42:11.070Z,102366.21
2023-02-07T05:43:11.078Z,102364.12
2023-02-07T05:44:11.066Z,102367.47
2023-02-07T05:45:11.103Z,102369.57
2023-02-07T05:46:11.094Z,102369.92
2023-02-07T05:47:11.061Z,102375.53
2023-02-07T05:48:11.063Z,102380.05
2023-02-07T05:49:11.072Z,102381.95
2023-02-07T05:50:11.061Z,102383.66
2023-02-07T05:51:11.063Z,102384.00
2023-02-07T05:52:11.063Z,102385.62
2023-02-07T05:53:11.071Z,102381.71
2023-02-07T05:54:11.063Z,102383.23
2023-02-07T05:55:11.071Z,102382.36
2023-02-07T05:56:11.062Z,102386.91
2023-02-07T05:57:11.063Z,102384.75
2023-02-07T05:58:11.070Z,102389.33
2023-02-07T05:59:11.060Z,102392.34
2023-02-07T06:00:11.062Z,102391.56
2023-02-07T06:01:11.066Z,102390.04
2023-02-07T06:02:11.080Z,102389.43
2023-02-07T06:03:11.096Z,102391.74
2023-02-07T06:04:11.061Z,102394.71
2023-02-07T06:05:14.069Z,102398.81
2023-02-07T06:06:11.062Z,102398.59
2023-02-07T06:07:11.063Z,102399.04
2023-02-07T06:08:11.059Z,102400.14
2023-02-07T06:09:11.071Z,102397.49
2023-02-07T06:10:11.063Z,102396.62
2023-02-07T06:11:11.065Z,102397.88
2023-02-07T06:12:11.069Z,102398.75
2023-02-07T06:13:11.059Z,102398.91
2023-02-07T06:14:11.080Z,102397.82
2023-02-07T06:15:11.077Z,102394.94
2023-02-07T06:16:11.121Z,102395.41
2023-02-07T06:17:11.068Z,102394.06
2023-02-07T06:18:11.069Z,102397.22
2023-02-07T06:19:11.065Z,102393.44
2023-02-07T06:20:11.068Z,102392.04
2023-02-07T06:21:11.063Z,102391.78
2023-02-07T06:22:11.059Z,102390.05
2023-02-07T06:23:11.061Z,102389.88
2023-02-07T06:24:11.069Z,102391.72
2023-02-07T06:25:12.178Z,102391.48
2023-02-07T06:26:11.060Z,102395.92
2023-02-07T06:27:11.069Z,102395.66
2023-02-07T06:28:11.103Z,102396.30
2023-02-07T06:29:11.064Z,102398.88
2023-02-07T06:30:12.065Z,102403.53
2023-02-07T06:31:11.224Z,102402.01
2023-02-07T06:32:11.063Z,102398.55
2023-02-07T06:33:11.071Z,102400.46
2023-02-07T06:34:11.075Z,102398.31
2023-02-07T06:35:11.065Z,102396.95
2023-02-07T06:36:11.065Z,102392.41
2023-02-07T06:37:11.063Z,102390.26
2023-02-07T06:38:11.064Z,102393.65
2023-02-07T06:39:11.065Z,102395.93
2023-02-07T06:40:11.061Z,102402.15
2023-02-07T06:41:14.072Z,102398.42
2023-02-07T06:42:11.075Z,102399.32
2023-02-07T06:43:11.062Z,102398.16
2023-02-07T06:44:11.063Z,102395.55
2023-02-07T06:45:11.068Z,102397.58
2023-02-07T06:46:11.099Z,102397.48
2023-02-07T06:47:11.064Z,102398.13
2023-02-07T06:48:11.069Z,102401.88
2023-02-07T06:49:11.070Z,102397.57
2023-02-07T06:50:11.065Z,102399.63
2023-02-07T06:51:11.065Z,102401.02
2023-02-07T06:52:11.060Z,102403.14
2023-02-07T06:53:11.067Z,102406.71
2023-02-07T06:54:13.066Z,102405.36
2023-02-07T06:55:11.064Z,102408.89
2023-02-07T06:56:11.065Z,102407.54
2023-02-07T06:57:11.073Z,102406.80
2023-02-07T06:58:11.067Z,102405.62
2023-02-07T06:59:11.063Z,102408.00
2023-02-07T07:00:11.080Z,102408.77
2023-02-07T07:01:11.055Z,102411.98
2023-02-07T07:02:11.058Z,102413.17
2023-02-07T07:03:14.061Z,102414.36
2023-02-07T07:04:11.060Z,102418.43
2023-02-07T07:05:11.061Z,102421.28
2023-02-07T07:06:11.062Z,102423.34
2023-02-07T07:07:11.062Z,102425.21
2023-02-07T07:08:11.064Z,102431.63
2023-02-07T07:09:11.062Z,102427.31
2023-02-07T07:10:11.081Z,102430.42
2023-02-07T07:11:11.064Z,102428.31
2023-02-07T07:12:11.064Z,102428.25
2023-02-07T07:13:11.059Z,102433.66
2023-02-07T07:14:11.065Z,102439.19
2023-02-07T07:15:11.077Z,102443.10
2023-02-07T07:16:11.099Z,102446.07
2023-02-07T07:17:11.066Z,102447.30
2023-02-07T07:18:11.065Z,102447.44
2023-02-07T07:19:11.060Z,102445.69
2023-02-07T07:20:11.077Z,102447.56
2023-02-07T07:21:11.072Z,102446.31
2023-02-07T07:22:11.060Z,102445.57
2023-02-07T07:23:11.074Z,102445.35
2023-02-07T07:24:11.067Z,102447.09
2023-02-07T07:25:11.068Z,102448.41
2023-02-07T07:26:11.082Z,102446.92
2023-02-07T07:27:11.066Z,102449.80
2023-02-07T07:28:11.084Z,102452.06
2023-02-07T07:29:12.074Z,102455.80
2023-02-07T07:30:11.066Z,102455.31
2023-02-07T07:31:11.188Z,102453.63
2023-02-07T07:32:11.068Z,102455.05
2023-02-07T07:33:11.068Z,102452.95
2023-02-07T07:34:11.062Z,102455.11
2023-02-07T07:35:11.070Z,102455.37
2023-02-07T07:36:11.065Z,102453.68
2023-02-07T07:37:11.063Z,102452.16
2023-02-07T07:38:11.079Z,102450.78
2023-02-07T07:39:12.064Z,102448.26
2023-02-07T07:40:11.059Z,102443.55
2023-02-07T07:41:11.078Z,102443.97
2023-02-07T07:42:11.062Z,102444.03
2023-02-07T07:43:11.058Z,102447.12
2023-02-07T07:44:11.070Z,102452.10
2023-02-07T07:45:11.089Z,102457.01
2023-02-07T07:46:12.057Z,102459.90
2023-02-07T07:47:11.065Z,102460.64
2023-02-07T07:48:11.091Z,102460.87
2023-02-07T07:49:11.073Z,102461.12
2023-02-07T07:50:11.062Z,102458.29
2023-02-07T07:51:11.079Z,102455.58
2023-02-07T07:52:11.056Z,102454.02
2023-02-07T07:53:11.058Z,102452.55
2023-02-07T07:54:11.076Z,102450.81
2023-02-07T07:55:11.057Z,102447.48
2023-02-07T07:56:11.064Z,102449.18
2023-02-07T07:57:11.071Z,102451.61
2023-02-07T07:58:11.057Z,102450.91
2023-02-07T07:59:16.002Z,102452.21
2023-02-07T08:00:13.108Z,102453.96
2023-02-07T08:01:11.123Z,102450.75
2023-02-07T08:02:15.072Z,102447.50
2023-02-07T08:03:11.068Z,102443.63
2023-02-07T08:04:11.121Z,102438.14
2023-02-07T08:05:13.609Z,102436.45
2023-02-07T08:06:11.060Z,102431.95
2023-02-07T08:07:11.066Z,102434.25
2023-02-07T08:08:11.055Z,102435.12
2023-02-07T08:09:11.067Z,102435.95
2023-02-07T08:10:11.056Z,102440.18
2023-02-07T08:11:11.053Z,102436.73
2023-02-07T08:12:11.065Z,102435.54
2023-02-07T08:13:11.058Z,102439.99
2023-02-07T08:14:11.060Z,102442.78
2023-02-07T08:15:13.067Z,102442.91
2023-02-07T08:16:12.108Z,102444.79
2023-02-07T08:17:11.057Z,102445.50
2023-02-07T08:18:11.062Z,102447.08
2023-02-07T08:19:11.060Z,102450.89
2023-02-07T08:20:11.057Z,102453.64
2023-02-07T08:21:11.074Z,102455.38
2023-02-07T08:22:11.070Z,102456.84
2023-02-07T08:23:11.057Z,102457.94
2023-02-07T08:24:11.067Z,102459.27
2023-02-07T08:25:11.062Z,102461.66
2023-02-07T08:26:11.058Z,102464.15
2023-02-07T08:27:11.068Z,102465.80
2023-02-07T08:28:11.090Z,102465.71
2023-02-07T08:29:11.065Z,102465.29
2023-02-07T08:30:12.068Z,102466.91
2023-02-07T08:31:11.201Z,102467.98
2023-02-07T08:32:11.109Z,102464.10
2023-02-07T08:33:11.068Z,102461.45
2023-02-07T08:34:11.062Z,102464.33
2023-02-07T08:35:11.073Z,102467.37
2023-02-07T08:36:13.068Z,102465.05
2023-02-07T08:37:11.066Z,102464.76
2023-02-07T08:38:11.056Z,102466.41
2023-02-07T08:39:11.067Z,102466.63
2023-02-07T08:40:11.066Z,102467.41
2023-02-07T08:41:11.078Z,102467.09
2023-02-07T08:42:11.070Z,102469.91
2023-02-07T08:43:15.064Z,102465.07
2023-02-07T08:44:11.062Z,102465.50
2023-02-07T08:45:11.090Z,102466.24
2023-02-07T08:46:11.170Z,102467.35
2023-02-07T08:47:11.058Z,102463.38
2023-02-07T08:48:11.067Z,102466.25
2023-02-07T08:49:11.065Z,102470.45
2023-02-07T08:50:11.060Z,102470.45
2023-02-07T08:51:11.064Z,102472.23
2023-02-07T08:52:11.063Z,102474.33
2023-02-07T08:53:11.062Z,102468.59
2023-02-07T08:54:11.067Z,102468.71
2023-02-07T08:55:11.060Z,102468.75
2023-02-07T08:56:11.089Z,102463.20
2023-02-07T08:57:11.073Z,102463.71
2023-02-07T08:58:11.066Z,102467.66
2023-02-07T08:59:11.060Z,102468.36
2023-02-07T09:00:11.085Z,102468.91
2023-02-07T09:01:14.139Z,102470.43
2023-02-07T09:02:12.149Z,102472.69
2023-02-07T09:03:12.970Z,102469.66
2023-02-07T09:04:11.059Z,102470.66
2023-02-07T09:05:11.064Z,102469.75
2023-02-07T09:06:11.070Z,102465.07
2023-02-07T09:07:11.069Z,102470.01
2023-02-07T09:08:11.064Z,102469.07
2023-02-07T09:09:11.074Z,102470.97
2023-02-07T09:10:11.068Z,102466.61
2023-02-07T09:11:11.123Z,102468.48
2023-02-07T09:12:11.070Z,102467.02
2023-02-07T09:13:11.077Z,102464.33
2023-02-07T09:14:11.061Z,102463.67
2023-02-07T09:15:11.073Z,102458.94
2023-02-07T09:16:11.061Z,102460.78
2023-02-07T09:17:11.066Z,102461.96
2023-02-07T09:18:11.071Z,102462.98
2023-02-07T09:19:11.068Z,102461.32
2023-02-07T09:20:11.066Z,102459.88
2023-02-07T09:21:11.070Z,102461.71
2023-02-07T09:22:11.064Z,102455.32
2023-02-07T09:23:15.062Z,102453.55
2023-02-07T09:24:11.072Z,102448.71
2023-02-07T09:25:11.063Z,102447.38
2023-02-07T09:26:15.066Z,102448.97
2023-02-07T09:27:11.073Z,102446.60
2023-02-07T09:28:11.130Z,102445.57
2023-02-07T09:29:14.065Z,102449.21
2023-02-07T09:30:11.067Z,102447.06
2023-02-07T09:31:13.201Z,102447.30
2023-02-07T09:32:11.069Z,102448.19
2023-02-07T09:33:11.068Z,102453.48
2023-02-07T09:34:11.071Z,102457.45
2023-02-07T09:35:12.074Z,102450.35
2023-02-07T09:36:21.070Z,102450.69
2023-02-07T09:37:11.073Z,102449.80
2023-02-07T09:38:13.063Z,102455.62
2023-02-07T09:39:11.074Z,102450.44
2023-02-07T09:40:16.067Z,102454.68
2023-02-07T09:41:19.072Z,102455.79
2023-02-07T09:42:22.071Z,102456.72
2023-02-07T09:43:20.356Z,102455.99
2023-02-07T09:44:18.249Z,102458.59
2023-02-07T09:45:18.300Z,102455.80
2023-02-07T09:46:19.173Z,102457.20
2023-02-07T09:47:17.071Z,102456.48
2023-02-07T09:48:19.070Z,102452.90
2023-02-07T09:49:22.070Z,102458.00
2023-02-07T09:50:21.074Z,102457.36
2023-02-07T09:51:12.141Z,102455.95
2023-02-07T09:52:16.075Z,102456.20
2023-02-07T09:53:19.072Z,102451.66
2023-02-07T09:54:19.069Z,102448.90
2023-02-07T09:55:19.076Z,102446.37
2023-02-07T09:56:11.068Z,102447.56
2023-02-07T09:57:16.070Z,102445.45
2023-02-07T09:58:18.066Z,102441.52
2023-02-07T09:59:19.066Z,102442.93
2023-02-07T10:00:19.060Z,102443.59
2023-02-07T10:01:17.129Z,102447.30
2023-02-07T10:02:19.141Z,102443.30
2023-02-07T10:03:21.059Z,102445.21
2023-02-07T10:04:19.066Z,102444.29
2023-02-07T10:05:19.063Z,102445.56
2023-02-07T10:06:22.362Z,102444.15
2023-02-07T10:07:12.059Z,102439.03
2023-02-07T10:08:14.060Z,102442.08
2023-02-07T10:09:15.069Z,102445.16
2023-02-07T10:10:23.063Z,102451.93
2023-02-07T10:11:22.064Z,102448.09
2023-02-07T10:12:22.059Z,102451.47
2023-02-07T10:13:19.056Z,102453.73
2023-02-07T10:14:19.059Z,102453.91
2023-02-07T10:15:19.072Z,102453.20
2023-02-07T10:16:22.062Z,102454.04
2023-02-07T10:17:30.528Z,102456.12
2023-02-07T10:18:27.064Z,102460.58
2023-02-07T10:19:20.064Z,102458.67
2023-02-07T10:20:19.064Z,102462.66
2023-02-07T10:21:25.067Z,102460.54
2023-02-07T10:22:19.084Z,102455.50
2023-02-07T10:23:22.062Z,102452.54
2023-02-07T10:24:19.091Z,102444.93
2023-02-07T10:25:19.122Z,102445.06
2023-02-07T10:26:22.058Z,102446.57
2023-02-07T10:27:15.064Z,102445.42
2023-02-07T10:28:19.144Z,102447.45
2023-02-07T10:29:19.069Z,102450.04
2023-02-07T10:30:18.060Z,102452.68
2023-02-07T10:31:15.137Z,102452.82
2023-02-07T10:32:19.063Z,102450.54
2023-02-07T10:33:15.057Z,102451.20
2023-02-07T10:34:14.065Z,102451.82
2023-02-07T10:35:16.070Z,102452.40
2023-02-07T10:36:15.061Z,102456.52
2023-02-07T10:37:17.065Z,102461.21
2023-02-07T10:38:19.061Z,102462.16
2023-02-07T10:39:17.074Z,102465.59
2023-02-07T10:40:16.063Z,102463.27
2023-02-07T10:41:20.062Z,102459.97
2023-02-07T10:42:15.067Z,102461.85
2023-02-07T10:43:20.067Z,102463.11
2023-02-07T10:44:19.074Z,102462.06
2023-02-07T10:45:14.064Z,102460.76
2023-02-07T10:46:11.128Z,102459.62
2023-02-07T10:47:16.063Z,102457.87
2023-02-07T10:48:17.071Z,102455.67
2023-02-07T10:49:25.187Z,102456.32
2023-02-07T10:50:18.676Z,102459.45
2023-02-07T10:51:21.037Z,102461.71
2023-02-07T10:52:19.073Z,102463.35
2023-02-07T10:53:11.064Z,102461.11
2023-02-07T10:54:15.059Z,102463.49
2023-02-07T10:55:12.064Z,102462.11
2023-02-07T10:56:18.065Z,102462.45
2023-02-07T10:57:17.069Z,102459.59
2023-02-07T10:58:22.874Z,102459.96
2023-02-07T10:59:21.068Z,102459.27
2023-02-07T11:00:22.073Z,102459.48
2023-02-07T11:01:18.106Z,102465.54
2023-02-07T11:02:19.089Z,102468.61
2023-02-07T11:03:18.062Z,102471.83
2023-02-07T11:04:19.063Z,102469.30
2023-02-07T11:05:22.089Z,102470.20
2023-02-07T11:06:13.065Z,102467.10
2023-02-07T11:07:15.062Z,102459.95
2023-02-07T11:08:18.066Z,102455.70
2023-02-07T11:09:24.065Z,102452.10
2023-02-07T11:10:16.070Z,102448.30
2023-02-07T11:11:22.069Z,102446.08
2023-02-07T11:12:15.075Z,102446.88
2023-02-07T11:13:15.082Z,102447.73
2023-02-07T11:14:16.063Z,102449.53
2023-02-07T11:15:18.069Z,102451.57
2023-02-07T11:16:11.124Z,102445.88
2023-02-07T11:17:19.068Z,102445.50
2023-02-07T11:18:15.065Z,102443.78
2023-02-07T11:19:15.074Z,102449.96
2023-02-07T11:20:19.062Z,102450.89
2023-02-07T11:21:19.064Z,102455.13
2023-02-07T11:22:18.068Z,102455.29
2023-02-07T11:23:15.070Z,102451.94
2023-02-07T11:24:19.070Z,102448.91
2023-02-07T11:25:11.070Z,102447.02